createdAt,value
2022-08-26T00:03:46.410Z,97995.00
2022-08-26T00:08:49.374Z,98001.00
2022-08-26T00:13:52.153Z,97996.00
2022-08-26T00:18:56.827Z,98003.00
2022-08-26T00:23:59.591Z,98001.00
2022-08-26T00:29:02.373Z,98000.00
2022-08-26T00:34:05.158Z,97991.00
2022-08-26T00:39:08.457Z,97988.00
2022-08-26T00:44:11.562Z,97989.00
2022-08-26T00:49:29.602Z,97985.00
2022-08-26T00:54:40.337Z,97980.00
2022-08-26T00:59:53.023Z,97983.00
2022-08-26T01:04:59.543Z,97982.00
2022-08-26T01:10:05.292Z,97984.00
2022-08-26T01:15:13.865Z,97984.00
2022-08-26T01:20:31.536Z,97978.00
2022-08-26T01:25:39.259Z,97977.00
2022-08-26T01:30:44.353Z,97968.00
2022-08-26T01:35:49.154Z,97973.00
2022-08-26T01:40:53.634Z,97974.00
2022-08-26T01:45:57.985Z,97969.00
2022-08-26T01:51:03.536Z,97975.00
2022-08-26T01:56:12.066Z,97977.00
2022-08-26T02:01:16.268Z,97966.00
2022-08-26T02:06:21.448Z,97983.00
2022-08-26T02:11:24.318Z,97968.00
2022-08-26T02:16:32.728Z,97966.00
2022-08-26T02:21:35.944Z,97973.00
2022-08-26T02:26:39.534Z,97967.00
2022-08-26T02:31:43.478Z,97965.00
2022-08-26T02:36:46.334Z,97969.00
2022-08-26T02:41:49.446Z,97970.00
2022-08-26T02:46:52.939Z,97960.00
2022-08-26T02:51:57.874Z,97961.00
2022-08-26T02:57:06.125Z,97965.00
2022-08-26T03:02:11.171Z,97962.00
2022-08-26T03:07:14.311Z,97952.00
2022-08-26T03:12:17.142Z,97949.00
2022-08-26T03:17:21.615Z,97951.00
2022-08-26T03:22:24.742Z,97941.00
2022-08-26T03:27:27.543Z,97943.00
2022-08-26T03:32:30.908Z,97934.00
2022-08-26T03:37:33.587Z,97935.00
2022-08-26T03:42:39.254Z,97934.00
2022-08-26T03:47:45.256Z,97935.00
2022-08-26T03:52:48.087Z,97934.00
2022-08-26T03:57:51.137Z,97930.00
2022-08-26T04:02:54.019Z,97938.00
2022-08-26T04:07:56.833Z,97943.00
2022-08-26T04:13:00.338Z,97945.00
2022-08-26T04:18:03.311Z,97943.00
2022-08-26T04:23:06.268Z,97943.00
2022-08-26T04:28:09.586Z,97941.00
2022-08-26T04:33:13.821Z,97943.00
2022-08-26T04:38:20.016Z,97934.00
2022-08-26T04:43:23.011Z,97938.00
2022-08-26T04:48:26.986Z,97931.00
2022-08-26T04:53:29.721Z,97941.00
2022-08-26T04:58:33.143Z,97937.00
2022-08-26T05:03:37.096Z,97943.00
2022-08-26T05:08:40.007Z,97954.00
2022-08-26T05:13:43.778Z,97940.00
2022-08-26T05:18:47.552Z,97949.00
2022-08-26T05:23:51.724Z,97936.00
2022-08-26T05:28:55.771Z,97941.00
2022-08-26T05:33:59.714Z,97946.00
2022-08-26T05:39:07.388Z,97958.00
2022-08-26T05:44:14.024Z,97950.00
2022-08-26T05:49:17.033Z,97950.00
2022-08-26T05:54:21.328Z,97951.00
2022-08-26T05:59:25.252Z,97932.00
2022-08-26T06:04:29.951Z,97941.00
2022-08-26T06:09:36.352Z,97938.00
2022-08-26T06:14:41.650Z,97937.00
2022-08-26T06:19:47.494Z,97929.00
2022-08-26T06:25:08.724Z,97933.00
2022-08-26T06:30:13.192Z,97941.00
2022-08-26T06:35:16.406Z,97942.00
2022-08-26T06:40:21.087Z,97940.00
2022-08-26T06:45:24.361Z,97940.00
2022-08-26T06:50:27.135Z,97938.00
2022-08-26T06:55:32.133Z,97939.00
2022-08-26T07:00:36.643Z,97934.00
2022-08-26T07:05:41.071Z,97940.00
2022-08-26T07:10:44.133Z,97934.00
2022-08-26T07:15:49.856Z,97941.00
2022-08-26T07:21:02.818Z,97935.00
2022-08-26T07:26:11.873Z,97937.00
2022-08-26T07:31:15.898Z,97937.00
2022-08-26T07:36:20.074Z,97932.00
2022-08-26T07:41:24.861Z,97935.00
2022-08-26T07:46:30.240Z,97939.00
2022-08-26T07:51:33.449Z,97939.00
2022-08-26T07:56:36.282Z,97929.00
2022-08-26T08:01:39.432Z,97929.00
2022-08-26T08:06:44.878Z,97932.00
2022-08-26T08:11:51.223Z,97941.00
2022-08-26T08:16:54.488Z,97944.00
2022-08-26T08:21:57.578Z,97936.00
2022-08-26T08:27:03.651Z,97935.00
2022-08-26T08:32:06.839Z,97935.00
2022-08-26T08:37:14.594Z,97928.00
2022-08-26T08:42:39.164Z,97916.00
2022-08-26T08:47:55.126Z,97922.00
2022-08-26T08:53:22.722Z,97918.00
2022-08-26T08:58:52.200Z,97910.00
2022-08-26T09:04:19.163Z,97900.00
2022-08-26T09:09:48.399Z,97897.00
2022-08-26T09:14:56.779Z,97897.00
2022-08-26T09:20:13.458Z,97893.00
2022-08-26T09:25:17.166Z,97901.00
2022-08-26T09:30:33.233Z,97897.00
2022-08-26T09:35:40.846Z,97883.00
2022-08-26T09:40:59.190Z,97878.00
2022-08-26T09:46:22.712Z,97878.00
2022-08-26T09:51:32.172Z,97884.00
2022-08-26T09:56:38.593Z,97882.00
2022-08-26T10:01:43.962Z,97876.00
2022-08-26T10:07:03.983Z,97872.00
2022-08-26T10:12:15.516Z,97863.00
2022-08-26T10:17:49.791Z,97858.00
2022-08-26T10:23:23.318Z,97848.00
2022-08-26T10:28:48.214Z,97851.00
2022-08-26T10:33:55.470Z,97859.00
2022-08-26T10:39:05.031Z,97850.00
2022-08-26T10:44:11.006Z,97862.00
2022-08-26T10:49:16.192Z,97848.00
2022-08-26T10:54:40.413Z,97864.00
2022-08-26T10:59:55.812Z,97886.00
2022-08-26T11:05:05.646Z,97864.00
2022-08-26T11:10:20.270Z,97862.00
2022-08-26T11:15:29.593Z,97847.00
2022-08-26T11:20:47.137Z,97835.00
2022-08-26T11:25:59.759Z,97821.00
2022-08-26T11:31:04.572Z,97819.00
2022-08-26T11:36:11.967Z,97816.00
2022-08-26T11:41:20.995Z,97813.00
2022-08-26T11:46:30.518Z,97818.00
2022-08-26T11:51:40.481Z,97843.00
2022-08-26T11:56:47.155Z,97846.00
2022-08-26T12:01:53.423Z,97851.00
2022-08-26T12:06:57.288Z,97834.00
2022-08-26T12:12:18.383Z,97831.00
2022-08-26T12:17:28.386Z,97843.00
2022-08-26T12:22:38.930Z,97847.00
2022-08-26T12:27:48.671Z,97836.00
2022-08-26T12:33:22.742Z,97823.00
2022-08-26T12:38:28.038Z,97808.00
2022-08-26T12:43:45.621Z,97791.00
2022-08-26T12:48:50.072Z,97788.00
2022-08-26T12:53:52.931Z,97786.00
2022-08-26T12:59:22.256Z,97783.00
2022-08-26T13:04:35.775Z,97793.00
2022-08-26T13:09:38.704Z,97792.00
2022-08-26T13:14:41.493Z,97790.00
2022-08-26T13:19:44.633Z,97770.00
2022-08-26T13:24:47.525Z,97748.00
2022-08-26T13:29:51.415Z,97741.00
2022-08-26T13:34:56.505Z,97727.00
2022-08-26T13:39:59.354Z,97735.00
2022-08-26T13:45:02.734Z,97747.00
2022-08-26T13:50:06.124Z,97752.00
2022-08-26T13:55:09.496Z,97746.00
2022-08-26T14:00:12.986Z,97759.00
2022-08-26T14:05:16.183Z,97762.00
2022-08-26T14:10:19.495Z,97761.00
2022-08-26T14:15:24.637Z,97750.00
2022-08-26T14:20:30.415Z,97749.00
2022-08-26T14:25:33.771Z,97752.00
2022-08-26T14:30:40.391Z,97740.00
2022-08-26T14:35:47.356Z,97738.00
2022-08-26T14:40:52.716Z,97726.00
2022-08-26T14:45:55.512Z,97730.00
2022-08-26T14:50:58.234Z,97723.00
2022-08-26T14:56:01.572Z,97724.00
2022-08-26T15:01:04.583Z,97720.00
2022-08-26T15:06:07.692Z,97712.00
2022-08-26T15:11:10.619Z,97716.00
2022-08-26T15:16:14.119Z,97700.00
2022-08-26T15:21:17.323Z,97694.00
2022-08-26T15:26:21.554Z,97689.00
2022-08-26T15:31:31.562Z,97681.00
2022-08-26T15:36:37.496Z,97690.00
2022-08-26T15:41:41.265Z,97698.00
2022-08-26T15:46:44.598Z,97715.00
2022-08-26T15:51:50.517Z,97720.00
2022-08-26T15:56:53.961Z,97727.00
2022-08-26T16:01:57.206Z,97723.00
2022-08-26T16:07:00.113Z,97725.00
2022-08-26T16:12:03.049Z,97730.00
2022-08-26T16:17:05.998Z,97732.00
2022-08-26T16:22:09.344Z,97719.00
2022-08-26T16:27:13.049Z,97713.00
2022-08-26T16:32:15.877Z,97700.00
2022-08-26T16:37:18.752Z,97696.00
2022-08-26T16:42:21.558Z,97699.00
2022-08-26T16:47:24.845Z,97704.00
2022-08-26T16:52:31.346Z,97709.00
2022-08-26T16:57:36.477Z,97708.00
2022-08-26T17:02:40.399Z,97701.00
2022-08-26T17:07:43.284Z,97694.00
2022-08-26T17:12:46.872Z,97692.00
2022-08-26T17:17:50.792Z,97697.00
2022-08-26T17:22:55.194Z,97689.00
2022-08-26T17:28:01.023Z,97687.00
2022-08-26T17:33:10.853Z,97677.00
2022-08-26T17:38:14.234Z,97658.00
2022-08-26T17:43:17.793Z,97651.00
2022-08-26T17:48:20.536Z,97654.00
2022-08-26T17:53:24.715Z,97642.00
2022-08-26T17:58:27.602Z,97644.00
2022-08-26T18:03:32.357Z,97655.00
2022-08-26T18:08:35.259Z,97667.00
2022-08-26T18:13:38.798Z,97671.00
2022-08-26T18:18:53.568Z,97682.00
2022-08-26T18:23:56.773Z,97696.00
2022-08-26T18:29:00.383Z,97696.00
2022-08-26T18:34:03.886Z,97714.00
2022-08-26T18:39:08.409Z,97711.00
2022-08-26T18:44:13.890Z,97720.00
2022-08-26T18:49:18.893Z,97735.00
2022-08-26T18:54:22.157Z,97737.00
2022-08-26T18:59:28.473Z,97737.00
2022-08-26T19:04:33.349Z,97743.00
2022-08-26T19:09:36.216Z,97744.00
2022-08-26T19:14:39.031Z,97749.00
2022-08-26T19:19:41.816Z,97731.00
2022-08-26T19:24:44.614Z,97749.00
2022-08-26T19:29:47.899Z,97745.00
2022-08-26T19:34:53.927Z,97742.00
2022-08-26T19:39:56.986Z,97734.00
2022-08-26T19:45:24.275Z,97732.00
2022-08-26T19:50:30.225Z,97728.00
2022-08-26T19:55:33.512Z,97737.00
2022-08-26T20:00:39.799Z,97739.00
2022-08-26T20:05:42.706Z,97726.00
2022-08-26T20:10:57.478Z,97728.00
2022-08-26T20:16:16.774Z,97723.00
2022-08-26T20:21:32.367Z,97715.00
2022-08-26T20:26:40.129Z,97711.00
2022-08-26T20:31:44.318Z,97714.00
2022-08-26T20:37:02.456Z,97713.00
2022-08-26T20:42:20.487Z,97723.00
2022-08-26T20:47:29.180Z,97722.00
2022-08-26T20:52:39.219Z,97722.00
2022-08-26T20:57:45.895Z,97727.00
2022-08-26T21:03:02.771Z,97727.00
2022-08-26T21:08:10.495Z,97728.00
2022-08-26T21:13:14.924Z,97715.00
2022-08-26T21:18:17.703Z,97724.00
2022-08-26T21:23:20.622Z,97717.00
2022-08-26T21:28:23.368Z,97722.00
2022-08-26T21:33:26.190Z,97728.00
2022-08-26T21:38:33.682Z,97722.00
2022-08-26T21:43:36.856Z,97727.00
2022-08-26T21:48:41.740Z,97728.00
2022-08-26T21:53:44.694Z,97727.00
2022-08-26T21:58:47.843Z,97729.00
2022-08-26T22:04:03.573Z,97733.00
2022-08-26T22:09:09.098Z,97725.00
2022-08-26T22:14:12.035Z,97731.00
2022-08-26T22:19:17.454Z,97730.00
2022-08-26T22:24:22.607Z,97733.00
2022-08-26T22:29:25.804Z,97748.00
2022-08-26T22:34:28.791Z,97756.00
2022-08-26T22:39:31.591Z,97675.00
2022-08-26T22:44:36.711Z,97732.00
2022-08-26T22:49:39.537Z,97747.00
2022-08-26T22:54:42.395Z,97761.00
2022-08-26T22:59:45.343Z,97765.00
2022-08-26T23:04:48.222Z,97770.00
2022-08-26T23:09:51.044Z,97751.00
2022-08-26T23:14:53.865Z,97736.00
2022-08-26T23:19:58.306Z,97713.00
2022-08-26T23:25:02.576Z,97702.00
2022-08-26T23:30:14.943Z,97704.00
2022-08-26T23:35:20.656Z,97709.00
2022-08-26T23:40:32.312Z,97713.00
2022-08-26T23:45:35.700Z,97713.00
2022-08-26T23:51:02.166Z,97710.00
2022-08-26T23:56:32.111Z,97711.00
